createdAt,value
2023-05-02T00:09:07.714Z,3
2023-05-02T00:19:13.464Z,2
2023-05-02T00:29:20.030Z,2
2023-05-02T00:39:26.206Z,2
2023-05-02T00:49:33.603Z,4
2023-05-02T00:59:39.614Z,2
2023-05-02T01:09:45.191Z,2
2023-05-02T01:19:50.779Z,4
2023-05-02T01:29:58.431Z,2
2023-05-02T01:40:03.440Z,2
2023-05-02T01:50:09.950Z,2
2023-05-02T02:00:15.841Z,3
2023-05-02T02:10:21.973Z,3
2023-05-02T02:20:30.442Z,3
2023-05-02T02:30:36.666Z,3
2023-05-02T02:40:43.452Z,3
2023-05-02T02:50:48.839Z,4
2023-05-02T03:00:55.246Z,3
2023-05-02T03:11:00.995Z,3
2023-05-02T03:21:07.779Z,4
2023-05-02T03:31:12.966Z,5
2023-05-02T03:41:19.422Z,3
2023-05-02T03:51:26.898Z,3
2023-05-02T04:01:32.799Z,3
2023-05-02T04:11:38.303Z,4
2023-05-02T04:21:43.748Z,3
2023-05-02T04:31:50.222Z,5
2023-05-02T04:41:56.252Z,4
2023-05-02T04:52:03.818Z,3
2023-05-02T05:02:10.311Z,3
2023-05-02T05:12:16.992Z,3
2023-05-02T05:22:21.761Z,5
2023-05-02T05:32:30.185Z,4
2023-05-02T05:42:35.433Z,4
2023-05-02T05:52:41.242Z,4
2023-05-02T06:02:49.349Z,5
2023-05-02T06:12:54.848Z,5
2023-05-02T06:22:59.567Z,6
2023-05-02T06:33:07.123Z,6
2023-05-02T06:43:12.925Z,4
2023-05-02T06:53:18.891Z,7
2023-05-02T07:03:24.798Z,4
2023-05-02T07:13:30.672Z,5
2023-05-02T07:23:35.437Z,5
2023-05-02T07:33:42.568Z,5
2023-05-02T07:43:51.954Z,4
2023-05-02T07:53:57.038Z,3
2023-05-02T08:04:06.124Z,7
2023-05-02T08:14:08.861Z,4
2023-05-02T08:24:14.849Z,5
2023-05-02T08:34:21.525Z,4
2023-05-02T08:44:26.984Z,7
2023-05-02T08:54:34.734Z,6
2023-05-02T09:04:41.661Z,7
2023-05-02T09:14:46.462Z,9
2023-05-02T09:24:55.239Z,6
2023-05-02T09:35:01.937Z,8
2023-05-02T09:45:10.415Z,9
2023-05-02T09:55:13.720Z,9
2023-05-02T10:05:20.538Z,16
2023-05-02T10:15:26.447Z,17
2023-05-02T10:25:34.606Z,14
2023-05-02T10:35:42.725Z,12
2023-05-02T10:45:49.428Z,10
2023-05-02T10:55:55.690Z,10
2023-05-02T11:06:02.423Z,12
2023-05-02T11:16:10.046Z,9
2023-05-02T11:26:17.860Z,10
2023-05-02T11:36:22.160Z,8
2023-05-02T11:46:29.102Z,9
2023-05-02T11:56:34.970Z,10
2023-05-02T12:06:43.688Z,9
2023-05-02T12:16:48.582Z,6
2023-05-02T12:26:53.311Z,6
2023-05-02T12:37:00.282Z,8
2023-05-02T12:47:06.588Z,10
2023-05-02T12:57:12.477Z,7
2023-05-02T13:07:21.513Z,7
2023-05-02T13:17:26.269Z,5
2023-05-02T13:27:32.890Z,12
2023-05-02T13:37:37.532Z,7
2023-05-02T13:47:44.592Z,7
2023-05-02T13:57:53.267Z,8
2023-05-02T14:08:00.055Z,9
2023-05-02T14:18:05.216Z,5
2023-05-02T14:28:11.500Z,4
2023-05-02T14:38:17.801Z,6
2023-05-02T14:48:21.825Z,5
2023-05-02T14:58:28.647Z,6
2023-05-02T15:08:35.147Z,6
2023-05-02T15:18:41.664Z,14
2023-05-02T15:28:47.813Z,6
2023-05-02T15:38:54.901Z,7
2023-05-02T15:49:02.053Z,6
2023-05-02T15:59:07.788Z,5
2023-05-02T16:09:13.296Z,5
2023-05-02T16:19:19.590Z,8
2023-05-02T16:29:26.322Z,6
2023-05-02T16:39:33.221Z,8
2023-05-02T16:49:40.911Z,7
2023-05-02T16:59:46.972Z,6
2023-05-02T17:09:53.765Z,5
2023-05-02T17:19:59.678Z,6
2023-05-02T17:30:06.559Z,7
2023-05-02T17:40:11.065Z,6
2023-05-02T17:50:17.270Z,8
2023-05-02T18:00:23.721Z,7
2023-05-02T18:10:29.329Z,7
2023-05-02T18:20:35.649Z,8
2023-05-02T18:30:39.834Z,9
2023-05-02T18:40:47.315Z,12
2023-05-02T18:50:54.441Z,11
2023-05-02T19:01:03.221Z,10
2023-05-02T19:11:07.383Z,10
2023-05-02T19:21:13.318Z,12
2023-05-02T19:31:20.439Z,11
2023-05-02T19:41:27.531Z,10
2023-05-02T19:51:33.017Z,11
2023-05-02T20:01:39.534Z,9
2023-05-02T20:11:45.767Z,16
2023-05-02T20:21:52.902Z,14
2023-05-02T20:31:59.433Z,10
2023-05-02T20:42:04.539Z,9
2023-05-02T20:52:11.331Z,11
2023-05-02T21:02:18.281Z,10
2023-05-02T21:12:23.459Z,10
2023-05-02T21:22:27.739Z,12
2023-05-02T21:32:36.154Z,11
2023-05-02T21:42:39.602Z,8
2023-05-02T21:52:46.800Z,10
2023-05-02T22:02:51.976Z,8
2023-05-02T22:12:57.150Z,8
2023-05-02T22:23:04.251Z,6
2023-05-02T22:33:10.463Z,6
2023-05-02T22:43:16.126Z,10
2023-05-02T22:53:21.578Z,11
2023-05-02T23:03:29.160Z,11
2023-05-02T23:13:35.209Z,8
2023-05-02T23:23:42.203Z,13
2023-05-02T23:33:48.418Z,15
2023-05-02T23:43:54.873Z,15
2023-05-02T23:54:01.254Z,16
